Brayton, Nebraska
Current Conditions -  °F | °C
As of 11:35 AM on Saturday 25 Oct 2014 (Local Time) from KBVN Reporting Station
Clear Clear  
Wind Chill: 63°   Ceiling: Unl
Heat Index: 63°   Visibility: 10mi
Dew Point: 37°   Wind: 10mph
Humidity: 38%   Direction: 80°E
Pressure: 30.15"   Gusts: NA
Location:  41.471°N, 98.3757°W
Report Text: KBVN 251635Z AUTO 08009KT 10SM CLR 17/03 A3015 RMK AO2 T01730027
Loading
Personal Weather Stations






























Interactive Weather Map
Tropical Storm Tracking
New forecast layout! Learn more

10-Day Weather Forecast

Advertisements
Track Severe Weather on mobile